Pagrindinis puslapis
METAR-TAF:

METAR-TAF

Oro uostai :

Santjago de los Kabaljerosas, Dominikos Respublika

platuma: 19-27N, ilguma: 070-42W, Aukštis: 183 m

Dabartinis oras

Ataskaita buvo paskelbta 55 minutes, ne 14:00 UTC
Ramus vėjas
Temperatūra 29°C
Drėgmė 74%
Slėgis 1013 hPa
Matomumas 10 km arba daugiau
Mažai debesys ne aukštis 2000 ft
Išsisklaidę debesys ne aukštis 30000 ft

METAR: MDST 231400Z 00000KT 9999 FEW020 SCT300 29/24 Q1013 NOSIG

Laikas: 10:55 (14:55 UTC)

Prognozė

Ataskaita buvo paskelbta 4 valandos ir 55 minutes, ne 10:00 UTC
Prognozė galioja nuo 23 metu 12 UTC su 24 metu 12 UTC
Vėjas 5 kt nuo kintamojo kryptimis
Matomumas 10 km arba daugiau
Išsisklaidę debesys ne aukštis 1800 ft
Išsisklaidę debesys ne aukštis 30000 ft
Tapsmas
nuo 23 metu 14 UTC su 23 metu 16 UTC
Vėjas 8 kt iš Rytų/Pietryčių

TAF: MDST 231000Z 2312/2412 VRB05KT 9999 SCT018 SCT300 BECMG 2314/2316 12008KT

Orai ataskaitas ir orų prognozės (METAR, TAF).

turimą stotys yra geltonos ir raudonos taškus žemėlapyje.

Perkelti pele per norėdami pamatyti stoties vardą.

Tada spustelėkite, norėdami matyti oro stebėjimo ir prognozės.

Norėdami pakeisti žemėlapį: spustelėkite ant žalios mygtukų su juodo kryžiaus žemyn,; žalią mygtuką su brūkšneliu, jei norite nutolinti; arba žalių rodyklių gretimoms žemėlapius.


METAR-TAF: